Terminal Aerodrome Forecast
Issued by NWS

Home | Current Version | Previous Version | Text Only | Print | Product List | Glossary On
Versions: 1 2 3 4 5 6 7 8 9 10 11 12 13 14 15 16 17 18 19 20 21 22 23 24 25 26 27 28 29 30
000
FTUS45 KBOU 230901 AAA
TAFBJC
TAF AMD
KBJC 230901Z 2309/2406 30010G20KT P6SM SCT140 BKN220
     FM231100 VRB05KT P6SM FEW120 SCT140 BKN180
     FM231400 04010G17KT P6SM SCT070 BKN120
      TEMPO 2315/2319 BKN060 BKN090
     FM232000 07008KT P6SM SCT080 BKN120
     FM232300 02010KT P6SM SCT100 BKN140
     FM240200 33013KT P6SM SCT140 SCT220
     FM240500 27008G15KT P6SM SCT220=

USA.gov is the U.S. government's official web portal to all federal, state and local government web resources and services.